sensor_id;sensor_type;location;lat;lon;timestamp;pressure;altitude;pressure_sealevel;temperature;humidity
64211;BME280;50528;48.514;14.394;2022-11-20T00:00:37;93212.20;;;-0.16;90.46
64211;BME280;50528;48.514;14.394;2022-11-20T00:01:51;93219.70;;;-0.13;90.42
64211;BME280;50528;48.514;14.394;2022-11-20T00:02:55;93218.95;;;-0.19;90.71
64211;BME280;50528;48.514;14.394;2022-11-20T00:03:58;93213.62;;;-0.16;90.85
64211;BME280;50528;48.514;14.394;2022-11-20T00:05:02;93209.27;;;-0.19;90.81
64211;BME280;50528;48.514;14.394;2022-11-20T00:06:09;93212.39;;;-0.15;90.87
64211;BME280;50528;48.514;14.394;2022-11-20T00:07:13;93210.33;;;-0.16;90.77
64211;BME280;50528;48.514;14.394;2022-11-20T00:08:17;93208.94;;;-0.17;90.89
64211;BME280;50528;48.514;14.394;2022-11-20T00:09:20;93197.61;;;-0.23;90.78
64211;BME280;50528;48.514;14.394;2022-11-20T00:10:24;93206.90;;;-0.20;90.79
64211;BME280;50528;48.514;14.394;2022-11-20T00:11:28;93206.67;;;-0.17;90.59
64211;BME280;50528;48.514;14.394;2022-11-20T00:12:32;93207.87;;;-0.18;90.89
64211;BME280;50528;48.514;14.394;2022-11-20T00:13:35;93209.70;;;-0.14;90.75
64211;BME280;50528;48.514;14.394;2022-11-20T00:14:38;93203.98;;;-0.16;90.82
64211;BME280;50528;48.514;14.394;2022-11-20T00:15:42;93207.40;;;-0.15;90.89
64211;BME280;50528;48.514;14.394;2022-11-20T00:16:45;93204.80;;;-0.16;90.94
64211;BME280;50528;48.514;14.394;2022-11-20T00:17:49;93202.34;;;-0.19;90.97
64211;BME280;50528;48.514;14.394;2022-11-20T00:18:52;93207.70;;;-0.17;90.95
64211;BME280;50528;48.514;14.394;2022-11-20T00:19:56;93206.05;;;-0.19;90.98
64211;BME280;50528;48.514;14.394;2022-11-20T00:21:06;93207.67;;;-0.14;90.84
64211;BME280;50528;48.514;14.394;2022-11-20T00:22:09;93205.44;;;-0.16;90.96
64211;BME280;50528;48.514;14.394;2022-11-20T00:23:13;93203.61;;;-0.18;90.88
64211;BME280;50528;48.514;14.394;2022-11-20T00:24:16;93206.39;;;-0.18;90.83
64211;BME280;50528;48.514;14.394;2022-11-20T00:25:19;93204.04;;;-0.17;90.84
64211;BME280;50528;48.514;14.394;2022-11-20T00:26:26;93198.10;;;-0.19;90.94
64211;BME280;50528;48.514;14.394;2022-11-20T00:27:29;93201.67;;;-0.19;90.80
64211;BME280;50528;48.514;14.394;2022-11-20T00:28:33;93202.63;;;-0.18;90.56
64211;BME280;50528;48.514;14.394;2022-11-20T00:29:37;93202.86;;;-0.20;90.71
64211;BME280;50528;48.514;14.394;2022-11-20T00:30:43;93202.14;;;-0.22;90.86
64211;BME280;50528;48.514;14.394;2022-11-20T00:31:46;93204.20;;;-0.22;90.75
64211;BME280;50528;48.514;14.394;2022-11-20T00:32:49;93206.75;;;-0.24;90.69
64211;BME280;50528;48.514;14.394;2022-11-20T00:33:53;93201.30;;;-0.24;90.73
64211;BME280;50528;48.514;14.394;2022-11-20T00:34:56;93200.52;;;-0.25;90.81
64211;BME280;50528;48.514;14.394;2022-11-20T00:36:03;93198.92;;;-0.25;90.97
64211;BME280;50528;48.514;14.394;2022-11-20T00:37:07;93183.94;;;-0.32;90.86
64211;BME280;50528;48.514;14.394;2022-11-20T00:38:10;93199.75;;;-0.26;90.80
64211;BME280;50528;48.514;14.394;2022-11-20T00:39:13;93198.67;;;-0.25;90.72
64211;BME280;50528;48.514;14.394;2022-11-20T00:40:17;93202.40;;;-0.28;90.85
64211;BME280;50528;48.514;14.394;2022-11-20T00:41:20;93197.25;;;-0.24;90.90
64211;BME280;50528;48.514;14.394;2022-11-20T00:42:24;93195.98;;;-0.28;91.08
64211;BME280;50528;48.514;14.394;2022-11-20T00:43:27;93201.17;;;-0.27;91.03
64211;BME280;50528;48.514;14.394;2022-11-20T00:44:30;93198.32;;;-0.23;90.94
64211;BME280;50528;48.514;14.394;2022-11-20T00:45:34;93200.95;;;-0.21;90.95
64211;BME280;50528;48.514;14.394;2022-11-20T00:46:37;93200.83;;;-0.23;90.87
64211;BME280;50528;48.514;14.394;2022-11-20T00:47:40;93201.55;;;-0.24;90.84
64211;BME280;50528;48.514;14.394;2022-11-20T00:48:44;93201.46;;;-0.25;90.74
64211;BME280;50528;48.514;14.394;2022-11-20T00:49:47;93201.17;;;-0.28;90.94
64211;BME280;50528;48.514;14.394;2022-11-20T00:50:51;93200.31;;;-0.26;91.08
64211;BME280;50528;48.514;14.394;2022-11-20T00:51:54;93202.29;;;-0.27;90.88
64211;BME280;50528;48.514;14.394;2022-11-20T00:52:57;93204.87;;;-0.27;90.88
64211;BME280;50528;48.514;14.394;2022-11-20T00:54:02;93202.45;;;-0.27;90.99
64211;BME280;50528;48.514;14.394;2022-11-20T00:55:06;93204.23;;;-0.24;91.13
64211;BME280;50528;48.514;14.394;2022-11-20T00:56:10;93202.50;;;-0.25;90.94
64211;BME280;50528;48.514;14.394;2022-11-20T00:57:14;93203.89;;;-0.25;90.90
64211;BME280;50528;48.514;14.394;2022-11-20T00:58:17;93201.73;;;-0.28;91.02
64211;BME280;50528;48.514;14.394;2022-11-20T00:59:21;93198.84;;;-0.27;91.03
64211;BME280;50528;48.514;14.394;2022-11-20T01:00:24;93197.98;;;-0.26;90.94
64211;BME280;50528;48.514;14.394;2022-11-20T01:01:28;93205.44;;;-0.25;91.02
64211;BME280;50528;48.514;14.394;2022-11-20T01:02:34;93205.98;;;-0.21;90.94
64211;BME280;50528;48.514;14.394;2022-11-20T01:03:39;93208.62;;;-0.20;91.01
64211;BME280;50528;48.514;14.394;2022-11-20T01:04:42;93207.77;;;-0.22;91.13
64211;BME280;50528;48.514;14.394;2022-11-20T01:05:45;93209.31;;;-0.22;91.07
64211;BME280;50528;48.514;14.394;2022-11-20T01:06:48;93207.47;;;-0.19;90.99
64211;BME280;50528;48.514;14.394;2022-11-20T01:07:52;93209.45;;;-0.16;90.86
64211;BME280;50528;48.514;14.394;2022-11-20T01:08:56;93209.34;;;-0.12;90.56
64211;BME280;50528;48.514;14.394;2022-11-20T01:09:59;93209.81;;;-0.11;90.71
64211;BME280;50528;48.514;14.394;2022-11-20T01:11:10;93212.19;;;-0.11;90.62
64211;BME280;50528;48.514;14.394;2022-11-20T01:12:13;93212.88;;;-0.13;90.56
64211;BME280;50528;48.514;14.394;2022-11-20T01:13:16;93208.14;;;-0.15;90.70
64211;BME280;50528;48.514;14.394;2022-11-20T01:14:38;93214.93;;;-0.15;90.62
64211;BME280;50528;48.514;14.394;2022-11-20T01:15:41;93212.08;;;-0.18;90.62
64211;BME280;50528;48.514;14.394;2022-11-20T01:16:46;93213.50;;;-0.18;90.77
64211;BME280;50528;48.514;14.394;2022-11-20T01:17:50;93212.98;;;-0.16;90.84
64211;BME280;50528;48.514;14.394;2022-11-20T01:18:54;93211.89;;;-0.13;90.69
64211;BME280;50528;48.514;14.394;2022-11-20T01:19:57;93210.96;;;-0.08;90.75
64211;BME280;50528;48.514;14.394;2022-11-20T01:21:08;93213.45;;;-0.07;90.68
64211;BME280;50528;48.514;14.394;2022-11-20T01:22:11;93215.34;;;-0.10;90.52
64211;BME280;50528;48.514;14.394;2022-11-20T01:23:14;93215.90;;;-0.13;90.42
64211;BME280;50528;48.514;14.394;2022-11-20T01:24:19;93214.55;;;-0.12;90.90
64211;BME280;50528;48.514;14.394;2022-11-20T01:25:23;93214.98;;;-0.11;90.64
64211;BME280;50528;48.514;14.394;2022-11-20T01:26:27;93216.69;;;-0.11;90.64
64211;BME280;50528;48.514;14.394;2022-11-20T01:27:30;93219.23;;;-0.09;90.98
64211;BME280;50528;48.514;14.394;2022-11-20T01:28:34;93217.20;;;-0.10;90.51
64211;BME280;50528;48.514;14.394;2022-11-20T01:29:37;93220.79;;;-0.09;90.83
64211;BME280;50528;48.514;14.394;2022-11-20T01:30:40;93214.98;;;-0.11;90.73
64211;BME280;50528;48.514;14.394;2022-11-20T01:31:43;93218.85;;;-0.06;90.68
64211;BME280;50528;48.514;14.394;2022-11-20T01:32:47;93221.95;;;-0.06;90.62
64211;BME280;50528;48.514;14.394;2022-11-20T01:33:52;93219.28;;;-0.06;90.66
64211;BME280;50528;48.514;14.394;2022-11-20T01:34:56;93215.08;;;-0.06;90.64
64211;BME280;50528;48.514;14.394;2022-11-20T01:36:05;93214.52;;;-0.04;90.50
64211;BME280;50528;48.514;14.394;2022-11-20T01:37:09;93218.73;;;-0.02;90.56
64211;BME280;50528;48.514;14.394;2022-11-20T01:38:12;93218.44;;;-0.05;90.47
64211;BME280;50528;48.514;14.394;2022-11-20T01:39:17;93219.92;;;-0.05;90.36
64211;BME280;50528;48.514;14.394;2022-11-20T01:40:21;93218.41;;;-0.06;90.46
64211;BME280;50528;48.514;14.394;2022-11-20T01:41:25;93216.85;;;-0.06;90.58
64211;BME280;50528;48.514;14.394;2022-11-20T01:42:47;93216.54;;;-0.05;90.48
64211;BME280;50528;48.514;14.394;2022-11-20T01:44:14;93217.41;;;-0.05;90.48
64211;BME280;50528;48.514;14.394;2022-11-20T01:46:52;93219.88;;;-0.05;90.63
64211;BME280;50528;48.514;14.394;2022-11-20T01:48:00;93215.07;;;-0.05;90.78
64211;BME280;50528;48.514;14.394;2022-11-20T01:49:05;93218.72;;;-0.04;90.49
64211;BME280;50528;48.514;14.394;2022-11-20T01:50:20;93217.02;;;-0.03;90.50
64211;BME280;50528;48.514;14.394;2022-11-20T01:53:38;93216.95;;;-0.01;90.34
64211;BME280;50528;48.514;14.394;2022-11-20T01:54:44;93214.08;;;-0.04;90.54
64211;BME280;50528;48.514;14.394;2022-11-20T01:55:49;93219.45;;;-0.00;90.58
64211;BME280;50528;48.514;14.394;2022-11-20T01:56:57;93219.77;;;-0.00;90.59
64211;BME280;50528;48.514;14.394;2022-11-20T01:58:01;93221.80;;;0.04;90.58
64211;BME280;50528;48.514;14.394;2022-11-20T01:59:05;93221.99;;;0.04;90.53
64211;BME280;50528;48.514;14.394;2022-11-20T02:00:12;93222.98;;;0.06;90.64
64211;BME280;50528;48.514;14.394;2022-11-20T02:01:16;93221.31;;;0.07;90.46
64211;BME280;50528;48.514;14.394;2022-11-20T02:02:20;93226.25;;;0.04;90.72
64211;BME280;50528;48.514;14.394;2022-11-20T02:03:24;93223.94;;;0.09;90.64
64211;BME280;50528;48.514;14.394;2022-11-20T02:04:27;93219.52;;;0.08;90.47
64211;BME280;50528;48.514;14.394;2022-11-20T02:05:38;93220.91;;;0.08;90.61
64211;BME280;50528;48.514;14.394;2022-11-20T02:06:48;93224.18;;;0.10;90.52
64211;BME280;50528;48.514;14.394;2022-11-20T02:07:52;93226.23;;;0.07;90.59
64211;BME280;50528;48.514;14.394;2022-11-20T02:08:57;93224.25;;;0.08;90.78
64211;BME280;50528;48.514;14.394;2022-11-20T02:10:00;93226.16;;;0.08;90.80
64211;BME280;50528;48.514;14.394;2022-11-20T02:11:05;93217.77;;;0.07;90.68
64211;BME280;50528;48.514;14.394;2022-11-20T02:12:08;93219.61;;;0.09;90.51
64211;BME280;50528;48.514;14.394;2022-11-20T02:13:32;93222.02;;;0.08;90.55
64211;BME280;50528;48.514;14.394;2022-11-20T02:14:48;93210.02;;;0.03;90.59
64211;BME280;50528;48.514;14.394;2022-11-20T02:15:51;93215.30;;;0.06;90.41
64211;BME280;50528;48.514;14.394;2022-11-20T02:16:55;93216.79;;;0.07;90.44
64211;BME280;50528;48.514;14.394;2022-11-20T02:17:58;93215.64;;;0.05;90.54
64211;BME280;50528;48.514;14.394;2022-11-20T02:19:02;93217.70;;;0.03;90.51
64211;BME280;50528;48.514;14.394;2022-11-20T02:20:07;93220.47;;;0.01;90.37
64211;BME280;50528;48.514;14.394;2022-11-20T02:21:17;93218.29;;;0.00;90.55
64211;BME280;50528;48.514;14.394;2022-11-20T02:22:28;93217.48;;;0.02;90.69
64211;BME280;50528;48.514;14.394;2022-11-20T02:23:38;93218.18;;;0.04;90.75
64211;BME280;50528;48.514;14.394;2022-11-20T02:24:42;93217.91;;;0.05;90.72
64211;BME280;50528;48.514;14.394;2022-11-20T02:25:47;93215.77;;;0.04;90.72
64211;BME280;50528;48.514;14.394;2022-11-20T02:27:54;93205.96;;;0.02;90.70
64211;BME280;50528;48.514;14.394;2022-11-20T02:28:58;93215.19;;;0.07;90.79
64211;BME280;50528;48.514;14.394;2022-11-20T02:30:03;93215.96;;;0.11;90.65
64211;BME280;50528;48.514;14.394;2022-11-20T02:31:07;93214.20;;;0.12;90.97
64211;BME280;50528;48.514;14.394;2022-11-20T02:32:20;93216.50;;;0.13;90.71
64211;BME280;50528;48.514;14.394;2022-11-20T02:33:26;93217.73;;;0.18;90.77
64211;BME280;50528;48.514;14.394;2022-11-20T02:34:30;93216.80;;;0.24;90.89
64211;BME280;50528;48.514;14.394;2022-11-20T02:36:36;93213.64;;;0.31;91.24
64211;BME280;50528;48.514;14.394;2022-11-20T02:37:41;93211.81;;;0.37;90.92
64211;BME280;50528;48.514;14.394;2022-11-20T02:38:44;93212.38;;;0.40;91.51
64211;BME280;50528;48.514;14.394;2022-11-20T02:39:49;93207.55;;;0.47;91.00
64211;BME280;50528;48.514;14.394;2022-11-20T02:40:52;93202.21;;;0.51;91.21
64211;BME280;50528;48.514;14.394;2022-11-20T02:41:57;93203.55;;;0.54;91.75
64211;BME280;50528;48.514;14.394;2022-11-20T02:43:03;93202.67;;;0.55;91.55
64211;BME280;50528;48.514;14.394;2022-11-20T02:44:07;93198.23;;;0.59;91.85
64211;BME280;50528;48.514;14.394;2022-11-20T02:45:12;93202.71;;;0.61;91.77
64211;BME280;50528;48.514;14.394;2022-11-20T02:46:16;93201.16;;;0.64;91.94
64211;BME280;50528;48.514;14.394;2022-11-20T02:47:19;93199.00;;;0.66;91.98
64211;BME280;50528;48.514;14.394;2022-11-20T02:48:22;93200.55;;;0.67;92.06
64211;BME280;50528;48.514;14.394;2022-11-20T02:49:27;93201.55;;;0.70;92.08
64211;BME280;50528;48.514;14.394;2022-11-20T02:50:30;93199.35;;;0.71;92.37
64211;BME280;50528;48.514;14.394;2022-11-20T02:51:33;93198.30;;;0.72;92.12
64211;BME280;50528;48.514;14.394;2022-11-20T02:52:39;93195.21;;;0.74;91.98
64211;BME280;50528;48.514;14.394;2022-11-20T02:53:42;93194.41;;;0.76;91.97
64211;BME280;50528;48.514;14.394;2022-11-20T02:54:45;93192.25;;;0.78;92.19
64211;BME280;50528;48.514;14.394;2022-11-20T02:55:49;93186.80;;;0.79;92.19
64211;BME280;50528;48.514;14.394;2022-11-20T02:56:52;93188.35;;;0.80;92.08
64211;BME280;50528;48.514;14.394;2022-11-20T02:57:55;93185.17;;;0.82;91.82
64211;BME280;50528;48.514;14.394;2022-11-20T02:58:59;93184.23;;;0.82;92.00
64211;BME280;50528;48.514;14.394;2022-11-20T03:00:03;93185.27;;;0.83;92.25
64211;BME280;50528;48.514;14.394;2022-11-20T03:01:07;93184.79;;;0.85;92.15
64211;BME280;50528;48.514;14.394;2022-11-20T03:02:10;93180.57;;;0.88;91.89
64211;BME280;50528;48.514;14.394;2022-11-20T03:03:13;93157.86;;;0.73;92.10
64211;BME280;50528;48.514;14.394;2022-11-20T03:04:17;93174.61;;;0.85;92.05
64211;BME280;50528;48.514;14.394;2022-11-20T03:05:20;93181.16;;;0.89;92.12
64211;BME280;50528;48.514;14.394;2022-11-20T03:06:26;93181.18;;;0.90;91.96
64211;BME280;50528;48.514;14.394;2022-11-20T03:07:29;93180.99;;;0.93;91.84
64211;BME280;50528;48.514;14.394;2022-11-20T03:08:32;93179.29;;;0.94;91.88
64211;BME280;50528;48.514;14.394;2022-11-20T03:09:36;93174.06;;;0.94;92.07
64211;BME280;50528;48.514;14.394;2022-11-20T03:10:39;93175.73;;;0.96;92.06
64211;BME280;50528;48.514;14.394;2022-11-20T03:11:45;93173.49;;;0.97;91.88
64211;BME280;50528;48.514;14.394;2022-11-20T03:12:57;93176.04;;;1.00;91.91
64211;BME280;50528;48.514;14.394;2022-11-20T03:14:04;93177.45;;;1.01;91.64
64211;BME280;50528;48.514;14.394;2022-11-20T03:15:08;93176.61;;;1.02;91.85
64211;BME280;50528;48.514;14.394;2022-11-20T03:16:16;93179.19;;;1.06;91.99
64211;BME280;50528;48.514;14.394;2022-11-20T03:17:20;93174.27;;;1.05;91.73
64211;BME280;50528;48.514;14.394;2022-11-20T03:18:23;93172.34;;;1.06;92.07
64211;BME280;50528;48.514;14.394;2022-11-20T03:19:28;93173.36;;;1.08;91.81
64211;BME280;50528;48.514;14.394;2022-11-20T03:20:32;93159.23;;;1.02;91.89
64211;BME280;50528;48.514;14.394;2022-11-20T03:21:35;93170.24;;;1.12;92.07
64211;BME280;50528;48.514;14.394;2022-11-20T03:22:39;93169.58;;;1.12;91.92
64211;BME280;50528;48.514;14.394;2022-11-20T03:23:42;93170.52;;;1.14;91.97
64211;BME280;50528;48.514;14.394;2022-11-20T03:24:45;93168.29;;;1.14;91.99
64211;BME280;50528;48.514;14.394;2022-11-20T03:25:49;93173.46;;;1.15;91.90
64211;BME280;50528;48.514;14.394;2022-11-20T03:26:52;93176.41;;;1.15;92.06
64211;BME280;50528;48.514;14.394;2022-11-20T03:27:55;93173.52;;;1.18;92.10
64211;BME280;50528;48.514;14.394;2022-11-20T03:28:59;93173.10;;;1.16;92.03
64211;BME280;50528;48.514;14.394;2022-11-20T03:30:03;93162.81;;;1.09;92.20
64211;BME280;50528;48.514;14.394;2022-11-20T03:31:12;93178.08;;;1.18;92.05
64211;BME280;50528;48.514;14.394;2022-11-20T03:32:16;93182.09;;;1.19;92.11
64211;BME280;50528;48.514;14.394;2022-11-20T03:33:19;93180.33;;;1.19;92.14
64211;BME280;50528;48.514;14.394;2022-11-20T03:34:22;93181.73;;;1.17;92.06
64211;BME280;50528;48.514;14.394;2022-11-20T03:35:28;93183.33;;;1.17;92.17
64211;BME280;50528;48.514;14.394;2022-11-20T03:36:32;93183.05;;;1.18;92.40
64211;BME280;50528;48.514;14.394;2022-11-20T03:37:35;93184.83;;;1.21;92.11
64211;BME280;50528;48.514;14.394;2022-11-20T03:38:39;93184.30;;;1.20;92.25
64211;BME280;50528;48.514;14.394;2022-11-20T03:39:43;93182.98;;;1.20;92.20
64211;BME280;50528;48.514;14.394;2022-11-20T03:40:46;93187.70;;;1.19;91.96
64211;BME280;50528;48.514;14.394;2022-11-20T03:41:49;93193.39;;;1.22;92.14
64211;BME280;50528;48.514;14.394;2022-11-20T03:42:52;93186.15;;;1.26;92.36
64211;BME280;50528;48.514;14.394;2022-11-20T03:43:57;93188.13;;;1.22;91.94
64211;BME280;50528;48.514;14.394;2022-11-20T03:45:03;93190.08;;;1.21;91.93
64211;BME280;50528;48.514;14.394;2022-11-20T03:46:07;93191.48;;;1.21;92.37
64211;BME280;50528;48.514;14.394;2022-11-20T03:47:10;93187.26;;;1.21;92.12
64211;BME280;50528;48.514;14.394;2022-11-20T03:48:13;93185.88;;;1.19;92.18
64211;BME280;50528;48.514;14.394;2022-11-20T03:49:17;93189.64;;;1.21;92.26
64211;BME280;50528;48.514;14.394;2022-11-20T03:50:20;93186.89;;;1.23;92.18
64211;BME280;50528;48.514;14.394;2022-11-20T03:51:24;93189.58;;;1.28;92.03
64211;BME280;50528;48.514;14.394;2022-11-20T03:52:28;93194.20;;;1.26;92.12
64211;BME280;50528;48.514;14.394;2022-11-20T03:53:31;93193.28;;;1.27;92.22
64211;BME280;50528;48.514;14.394;2022-11-20T03:54:35;93191.09;;;1.28;91.95
64211;BME280;50528;48.514;14.394;2022-11-20T03:55:38;93192.80;;;1.29;92.06
64211;BME280;50528;48.514;14.394;2022-11-20T03:56:41;93191.58;;;1.32;92.28
64211;BME280;50528;48.514;14.394;2022-11-20T03:57:44;93192.16;;;1.30;92.29
64211;BME280;50528;48.514;14.394;2022-11-20T03:58:47;93190.83;;;1.31;92.21
64211;BME280;50528;48.514;14.394;2022-11-20T03:59:55;93192.98;;;1.32;92.41
64211;BME280;50528;48.514;14.394;2022-11-20T04:01:03;93191.95;;;1.33;92.44
64211;BME280;50528;48.514;14.394;2022-11-20T04:02:06;93189.83;;;1.33;92.11
64211;BME280;50528;48.514;14.394;2022-11-20T04:03:10;93187.28;;;1.34;92.28
64211;BME280;50528;48.514;14.394;2022-11-20T04:04:13;93186.46;;;1.36;92.12
64211;BME280;50528;48.514;14.394;2022-11-20T04:05:16;93184.14;;;1.38;92.41
64211;BME280;50528;48.514;14.394;2022-11-20T04:06:20;93181.52;;;1.38;92.23
64211;BME280;50528;48.514;14.394;2022-11-20T04:07:24;93182.95;;;1.39;92.08
64211;BME280;50528;48.514;14.394;2022-11-20T04:08:28;93186.26;;;1.39;92.08
64211;BME280;50528;48.514;14.394;2022-11-20T04:09:31;93187.16;;;1.41;92.17
64211;BME280;50528;48.514;14.394;2022-11-20T04:10:34;93184.89;;;1.41;92.16
64211;BME280;50528;48.514;14.394;2022-11-20T04:11:39;93186.45;;;1.41;92.08
64211;BME280;50528;48.514;14.394;2022-11-20T04:12:42;93192.60;;;1.43;91.97
64211;BME280;50528;48.514;14.394;2022-11-20T04:13:47;93188.58;;;1.42;92.03
64211;BME280;50528;48.514;14.394;2022-11-20T04:14:50;93188.50;;;1.43;91.90
64211;BME280;50528;48.514;14.394;2022-11-20T04:15:56;93192.52;;;1.45;92.03
64211;BME280;50528;48.514;14.394;2022-11-20T04:16:59;93190.48;;;1.45;92.13
64211;BME280;50528;48.514;14.394;2022-11-20T04:18:03;93188.33;;;1.47;91.83
64211;BME280;50528;48.514;14.394;2022-11-20T04:19:09;93188.30;;;1.46;91.82
64211;BME280;50528;48.514;14.394;2022-11-20T04:20:15;93190.98;;;1.49;91.72
64211;BME280;50528;48.514;14.394;2022-11-20T04:21:19;93194.05;;;1.48;91.81
64211;BME280;50528;48.514;14.394;2022-11-20T04:22:22;93191.90;;;1.48;91.93
64211;BME280;50528;48.514;14.394;2022-11-20T04:23:26;93192.61;;;1.46;91.83
64211;BME280;50528;48.514;14.394;2022-11-20T04:24:30;93192.71;;;1.46;92.01
64211;BME280;50528;48.514;14.394;2022-11-20T04:25:34;93193.55;;;1.46;91.84
64211;BME280;50528;48.514;14.394;2022-11-20T04:26:37;93191.80;;;1.46;91.95
64211;BME280;50528;48.514;14.394;2022-11-20T04:27:41;93193.05;;;1.47;92.02
64211;BME280;50528;48.514;14.394;2022-11-20T04:28:44;93193.45;;;1.48;92.02
64211;BME280;50528;48.514;14.394;2022-11-20T04:29:47;93189.66;;;1.49;91.92
64211;BME280;50528;48.514;14.394;2022-11-20T04:30:50;93189.63;;;1.51;91.88
64211;BME280;50528;48.514;14.394;2022-11-20T04:31:56;93191.67;;;1.55;91.74
64211;BME280;50528;48.514;14.394;2022-11-20T04:33:01;93190.21;;;1.53;91.95
64211;BME280;50528;48.514;14.394;2022-11-20T04:34:05;93191.38;;;1.52;92.02
64211;BME280;50528;48.514;14.394;2022-11-20T04:35:09;93190.27;;;1.50;92.05
64211;BME280;50528;48.514;14.394;2022-11-20T04:36:19;93198.02;;;1.49;91.90
64211;BME280;50528;48.514;14.394;2022-11-20T04:37:23;93193.77;;;1.47;91.53
64211;BME280;50528;48.514;14.394;2022-11-20T04:38:26;93197.20;;;1.48;91.77
64211;BME280;50528;48.514;14.394;2022-11-20T04:39:30;93197.40;;;1.48;91.86
64211;BME280;50528;48.514;14.394;2022-11-20T04:40:33;93199.23;;;1.50;91.61
64211;BME280;50528;48.514;14.394;2022-11-20T04:41:36;93193.57;;;1.50;91.60
64211;BME280;50528;48.514;14.394;2022-11-20T04:42:39;93197.67;;;1.52;91.70
64211;BME280;50528;48.514;14.394;2022-11-20T04:43:46;93198.08;;;1.53;91.61
64211;BME280;50528;48.514;14.394;2022-11-20T04:44:49;93193.15;;;1.54;91.35
64211;BME280;50528;48.514;14.394;2022-11-20T04:45:53;93195.71;;;1.52;91.48
64211;BME280;50528;48.514;14.394;2022-11-20T04:46:56;93193.20;;;1.45;91.36
64211;BME280;50528;48.514;14.394;2022-11-20T04:47:59;93180.55;;;1.34;91.40
64211;BME280;50528;48.514;14.394;2022-11-20T04:49:03;93188.85;;;1.40;91.71
64211;BME280;50528;48.514;14.394;2022-11-20T04:50:06;93191.47;;;1.40;91.59
64211;BME280;50528;48.514;14.394;2022-11-20T04:51:10;93188.85;;;1.39;91.61
64211;BME280;50528;48.514;14.394;2022-11-20T04:52:13;93189.56;;;1.39;91.71
64211;BME280;50528;48.514;14.394;2022-11-20T04:53:18;93186.98;;;1.38;91.96
64211;BME280;50528;48.514;14.394;2022-11-20T04:54:22;93189.91;;;1.35;91.88
64211;BME280;50528;48.514;14.394;2022-11-20T04:55:25;93191.56;;;1.36;92.05
64211;BME280;50528;48.514;14.394;2022-11-20T04:56:28;93188.98;;;1.38;92.08
64211;BME280;50528;48.514;14.394;2022-11-20T04:57:31;93191.48;;;1.37;91.75
64211;BME280;50528;48.514;14.394;2022-11-20T05:01:08;93194.25;;;1.32;91.91
64211;BME280;50528;48.514;14.394;2022-11-20T05:02:12;93192.25;;;1.28;91.81
64211;BME280;50528;48.514;14.394;2022-11-20T05:03:18;93187.34;;;1.26;91.97
64211;BME280;50528;48.514;14.394;2022-11-20T05:04:21;93185.75;;;1.26;91.98
64211;BME280;50528;48.514;14.394;2022-11-20T05:05:25;93190.06;;;1.26;91.97
64211;BME280;50528;48.514;14.394;2022-11-20T05:06:28;93190.77;;;1.28;92.03
64211;BME280;50528;48.514;14.394;2022-11-20T05:07:32;93191.81;;;1.29;92.20
64211;BME280;50528;48.514;14.394;2022-11-20T05:08:35;93191.36;;;1.31;92.08
64211;BME280;50528;48.514;14.394;2022-11-20T05:09:39;93186.92;;;1.33;92.12
64211;BME280;50528;48.514;14.394;2022-11-20T05:10:42;93190.90;;;1.36;92.06
64211;BME280;50528;48.514;14.394;2022-11-20T05:11:45;93186.33;;;1.37;92.22
64211;BME280;50528;48.514;14.394;2022-11-20T05:12:53;93183.48;;;1.34;92.01
64211;BME280;50528;48.514;14.394;2022-11-20T05:13:57;93189.29;;;1.39;92.05
64211;BME280;50528;48.514;14.394;2022-11-20T05:15:01;93190.02;;;1.40;92.02
64211;BME280;50528;48.514;14.394;2022-11-20T05:16:11;93190.31;;;1.41;91.97
64211;BME280;50528;48.514;14.394;2022-11-20T05:17:15;93191.89;;;1.43;91.92
64211;BME280;50528;48.514;14.394;2022-11-20T05:18:18;93188.91;;;1.43;92.06
64211;BME280;50528;48.514;14.394;2022-11-20T05:19:24;93195.91;;;1.45;91.92
64211;BME280;50528;48.514;14.394;2022-11-20T05:20:28;93197.06;;;1.45;91.79
64211;BME280;50528;48.514;14.394;2022-11-20T05:21:31;93193.92;;;1.45;91.94
64211;BME280;50528;48.514;14.394;2022-11-20T05:22:35;93192.88;;;1.46;92.00
64211;BME280;50528;48.514;14.394;2022-11-20T05:23:38;93193.48;;;1.48;91.93
64211;BME280;50528;48.514;14.394;2022-11-20T05:24:42;93190.98;;;1.49;91.70
64211;BME280;50528;48.514;14.394;2022-11-20T05:25:45;93194.48;;;1.49;91.71
64211;BME280;50528;48.514;14.394;2022-11-20T05:26:51;93195.95;;;1.51;91.82
64211;BME280;50528;48.514;14.394;2022-11-20T05:27:54;93195.48;;;1.50;91.44
64211;BME280;50528;48.514;14.394;2022-11-20T05:28:58;93194.73;;;1.50;91.56
64211;BME280;50528;48.514;14.394;2022-11-20T05:30:02;93200.27;;;1.49;91.67
64211;BME280;50528;48.514;14.394;2022-11-20T05:31:10;93201.30;;;1.50;91.63
64211;BME280;50528;48.514;14.394;2022-11-20T05:32:14;93193.50;;;1.48;91.52
64211;BME280;50528;48.514;14.394;2022-11-20T05:33:17;93197.27;;;1.48;91.47
64211;BME280;50528;48.514;14.394;2022-11-20T05:34:21;93195.27;;;1.46;91.61
64211;BME280;50528;48.514;14.394;2022-11-20T05:35:25;93197.86;;;1.45;91.62
64211;BME280;50528;48.514;14.394;2022-11-20T05:36:31;93200.29;;;1.45;91.56
64211;BME280;50528;48.514;14.394;2022-11-20T05:37:35;93202.67;;;1.45;91.60
64211;BME280;50528;48.514;14.394;2022-11-20T05:38:38;93199.69;;;1.44;91.73
64211;BME280;50528;48.514;14.394;2022-11-20T05:39:42;93197.66;;;1.44;91.61
64211;BME280;50528;48.514;14.394;2022-11-20T05:40:45;93200.33;;;1.46;91.49
64211;BME280;50528;48.514;14.394;2022-11-20T05:41:49;93206.19;;;1.43;91.41
64211;BME280;50528;48.514;14.394;2022-11-20T05:43:12;93203.88;;;1.43;91.64
64211;BME280;50528;48.514;14.394;2022-11-20T05:44:15;93199.05;;;1.43;91.60
64211;BME280;50528;48.514;14.394;2022-11-20T05:45:19;93203.08;;;1.42;91.58
64211;BME280;50528;48.514;14.394;2022-11-20T05:46:22;93203.41;;;1.41;91.34
64211;BME280;50528;48.514;14.394;2022-11-20T05:47:32;93205.08;;;1.42;91.28
64211;BME280;50528;48.514;14.394;2022-11-20T05:48:37;93201.16;;;1.46;91.43
64211;BME280;50528;48.514;14.394;2022-11-20T05:49:41;93204.95;;;1.44;91.33